sensor_id;sensor_type;location;lat;lon;timestamp;temperature;humidity
14521;DHT22;7347;50.844;4.490;2023-06-26T12:17:17;25.70;87.00
14521;DHT22;7347;50.844;4.490;2023-06-26T12:19:45;25.80;87.10
14521;DHT22;7347;50.844;4.490;2023-06-26T12:22:13;26.00;87.50
14521;DHT22;7347;50.844;4.490;2023-06-26T12:24:40;26.00;88.50
14521;DHT22;7347;50.844;4.490;2023-06-26T12:27:09;25.90;87.40
14521;DHT22;7347;50.844;4.490;2023-06-26T12:29:38;25.90;87.00
14521;DHT22;7347;50.844;4.490;2023-06-26T12:32:08;26.00;88.80
14521;DHT22;7347;50.844;4.490;2023-06-26T12:34:38;26.10;85.70
14521;DHT22;7347;50.844;4.490;2023-06-26T12:37:07;26.10;87.80
14521;DHT22;7347;50.844;4.490;2023-06-26T12:39:48;26.10;86.70
14521;DHT22;7347;50.844;4.490;2023-06-26T12:42:16;26.10;87.80
14521;DHT22;7347;50.844;4.490;2023-06-26T12:44:43;26.10;87.10
14521;DHT22;7347;50.844;4.490;2023-06-26T12:47:10;25.80;85.50
14521;DHT22;7347;50.844;4.490;2023-06-26T12:49:41;25.80;85.60
14521;DHT22;7347;50.844;4.490;2023-06-26T12:52:10;25.80;84.10
14521;DHT22;7347;50.844;4.490;2023-06-26T12:54:39;25.90;84.10
14521;DHT22;7347;50.844;4.490;2023-06-26T12:57:06;25.80;84.50
14521;DHT22;7347;50.844;4.490;2023-06-26T12:59:34;25.80;84.50
14521;DHT22;7347;50.844;4.490;2023-06-26T13:02:01;25.80;86.10
14521;DHT22;7347;50.844;4.490;2023-06-26T13:04:29;25.80;87.30
14521;DHT22;7347;50.844;4.490;2023-06-26T13:06:57;25.80;87.50
14521;DHT22;7347;50.844;4.490;2023-06-26T13:09:25;25.60;88.60
14521;DHT22;7347;50.844;4.490;2023-06-26T13:11:52;25.50;89.50
14521;DHT22;7347;50.844;4.490;2023-06-26T13:14:19;25.50;88.20
14521;DHT22;7347;50.844;4.490;2023-06-26T13:16:46;25.60;86.80
14521;DHT22;7347;50.844;4.490;2023-06-26T13:19:13;25.60;87.20
14521;DHT22;7347;50.844;4.490;2023-06-26T13:21:40;25.60;90.30
14521;DHT22;7347;50.844;4.490;2023-06-26T13:24:08;25.50;90.20
14521;DHT22;7347;50.844;4.490;2023-06-26T13:26:35;25.50;88.80
14521;DHT22;7347;50.844;4.490;2023-06-26T13:29:02;25.50;89.20
14521;DHT22;7347;50.844;4.490;2023-06-26T13:31:29;25.50;89.90
14521;DHT22;7347;50.844;4.490;2023-06-26T13:33:57;25.70;90.30
14521;DHT22;7347;50.844;4.490;2023-06-26T13:36:24;25.80;89.10
14521;DHT22;7347;50.844;4.490;2023-06-26T13:38:51;25.70;89.60
14521;DHT22;7347;50.844;4.490;2023-06-26T13:41:22;25.80;91.20
14521;DHT22;7347;50.844;4.490;2023-06-26T13:43:49;26.00;90.50
14521;DHT22;7347;50.844;4.490;2023-06-26T13:46:16;26.00;90.50
14521;DHT22;7347;50.844;4.490;2023-06-26T13:48:43;25.90;90.00
14521;DHT22;7347;50.844;4.490;2023-06-26T13:51:10;25.80;88.90
14521;DHT22;7347;50.844;4.490;2023-06-26T13:53:37;25.60;91.50
14521;DHT22;7347;50.844;4.490;2023-06-26T13:56:04;25.70;90.20
14521;DHT22;7347;50.844;4.490;2023-06-26T13:58:35;25.70;91.40
14521;DHT22;7347;50.844;4.490;2023-06-26T14:01:02;25.80;90.90
14521;DHT22;7347;50.844;4.490;2023-06-26T14:03:29;25.70;88.90
14521;DHT22;7347;50.844;4.490;2023-06-26T14:05:56;25.60;90.10
14521;DHT22;7347;50.844;4.490;2023-06-26T14:08:23;25.40;90.80
14521;DHT22;7347;50.844;4.490;2023-06-26T14:10:50;25.30;90.10
14521;DHT22;7347;50.844;4.490;2023-06-26T14:13:17;25.30;90.00
14521;DHT22;7347;50.844;4.490;2023-06-26T14:15:45;25.30;89.40
14521;DHT22;7347;50.844;4.490;2023-06-26T14:18:12;25.40;90.30
14521;DHT22;7347;50.844;4.490;2023-06-26T14:20:40;25.50;86.30
14521;DHT22;7347;50.844;4.490;2023-06-26T14:23:07;25.60;85.80
14521;DHT22;7347;50.844;4.490;2023-06-26T14:25:34;25.50;86.00
14521;DHT22;7347;50.844;4.490;2023-06-26T14:28:01;25.50;86.00
14521;DHT22;7347;50.844;4.490;2023-06-26T14:30:28;25.50;87.60
14521;DHT22;7347;50.844;4.490;2023-06-26T14:32:56;25.50;88.70
14521;DHT22;7347;50.844;4.490;2023-06-26T14:35:23;25.30;86.10
14521;DHT22;7347;50.844;4.490;2023-06-26T14:37:50;25.40;87.80
14521;DHT22;7347;50.844;4.490;2023-06-26T14:40:17;25.50;89.50
14521;DHT22;7347;50.844;4.490;2023-06-26T14:42:44;25.60;88.70
14521;DHT22;7347;50.844;4.490;2023-06-26T14:45:11;25.70;87.90
14521;DHT22;7347;50.844;4.490;2023-06-26T14:47:38;25.60;87.50
14521;DHT22;7347;50.844;4.490;2023-06-26T14:50:07;25.60;88.30
14521;DHT22;7347;50.844;4.490;2023-06-26T14:52:34;25.70;87.60
14521;DHT22;7347;50.844;4.490;2023-06-26T14:55:01;25.80;86.50
14521;DHT22;7347;50.844;4.490;2023-06-26T14:57:28;25.90;88.20
14521;DHT22;7347;50.844;4.490;2023-06-26T14:59:55;26.00;86.10
14521;DHT22;7347;50.844;4.490;2023-06-26T15:02:22;26.00;87.00
14521;DHT22;7347;50.844;4.490;2023-06-26T15:04:49;25.80;84.80
14521;DHT22;7347;50.844;4.490;2023-06-26T15:07:17;25.80;87.50
14521;DHT22;7347;50.844;4.490;2023-06-26T15:09:44;25.70;87.00
14521;DHT22;7347;50.844;4.490;2023-06-26T15:12:11;25.70;86.10
14521;DHT22;7347;50.844;4.490;2023-06-26T15:14:38;25.50;86.30
14521;DHT22;7347;50.844;4.490;2023-06-26T15:17:05;25.50;86.70
14521;DHT22;7347;50.844;4.490;2023-06-26T15:19:33;25.40;87.10
14521;DHT22;7347;50.844;4.490;2023-06-26T15:22:00;25.20;86.40
14521;DHT22;7347;50.844;4.490;2023-06-26T15:24:28;25.40;87.40
14521;DHT22;7347;50.844;4.490;2023-06-26T15:26:55;25.40;87.80
14521;DHT22;7347;50.844;4.490;2023-06-26T15:29:22;25.30;88.20
14521;DHT22;7347;50.844;4.490;2023-06-26T15:31:49;25.10;88.60
14521;DHT22;7347;50.844;4.490;2023-06-26T15:34:16;24.90;89.50
14521;DHT22;7347;50.844;4.490;2023-06-26T15:36:42;24.90;90.20
14521;DHT22;7347;50.844;4.490;2023-06-26T15:39:10;24.80;90.10
14521;DHT22;7347;50.844;4.490;2023-06-26T15:41:38;24.80;90.30
14521;DHT22;7347;50.844;4.490;2023-06-26T15:44:05;24.70;90.50
14521;DHT22;7347;50.844;4.490;2023-06-26T15:46:32;24.60;89.90
14521;DHT22;7347;50.844;4.490;2023-06-26T15:48:59;24.50;90.40
14521;DHT22;7347;50.844;4.490;2023-06-26T15:51:26;24.50;90.60
14521;DHT22;7347;50.844;4.490;2023-06-26T15:53:52;24.60;90.30
14521;DHT22;7347;50.844;4.490;2023-06-26T15:56:19;24.80;91.80
14521;DHT22;7347;50.844;4.490;2023-06-26T15:58:47;24.90;91.00
14521;DHT22;7347;50.844;4.490;2023-06-26T16:01:14;25.00;90.90
14521;DHT22;7347;50.844;4.490;2023-06-26T16:03:42;25.10;89.60
14521;DHT22;7347;50.844;4.490;2023-06-26T16:06:09;25.10;88.00
14521;DHT22;7347;50.844;4.490;2023-06-26T16:08:36;24.90;89.20
14521;DHT22;7347;50.844;4.490;2023-06-26T16:11:03;25.00;90.40
14521;DHT22;7347;50.844;4.490;2023-06-26T16:13:30;25.00;89.70
14521;DHT22;7347;50.844;4.490;2023-06-26T16:15:59;25.00;89.70
14521;DHT22;7347;50.844;4.490;2023-06-26T16:18:26;25.10;89.40
14521;DHT22;7347;50.844;4.490;2023-06-26T16:20:53;25.10;90.40
14521;DHT22;7347;50.844;4.490;2023-06-26T16:23:20;25.10;89.30
14521;DHT22;7347;50.844;4.490;2023-06-26T16:25:47;25.00;89.40
14521;DHT22;7347;50.844;4.490;2023-06-26T16:28:14;24.90;87.20
14521;DHT22;7347;50.844;4.490;2023-06-26T16:30:40;24.70;89.50
14521;DHT22;7347;50.844;4.490;2023-06-26T16:33:09;24.70;88.30
14521;DHT22;7347;50.844;4.490;2023-06-26T16:35:36;24.60;89.10
14521;DHT22;7347;50.844;4.490;2023-06-26T16:38:04;24.50;88.90
14521;DHT22;7347;50.844;4.490;2023-06-26T16:40:31;24.50;88.50
14521;DHT22;7347;50.844;4.490;2023-06-26T16:42:58;24.40;86.40
14521;DHT22;7347;50.844;4.490;2023-06-26T16:45:25;24.40;87.30
14521;DHT22;7347;50.844;4.490;2023-06-26T16:47:52;24.30;87.60
14521;DHT22;7347;50.844;4.490;2023-06-26T16:50:20;24.20;87.30
14521;DHT22;7347;50.844;4.490;2023-06-26T16:52:47;24.20;87.50
14521;DHT22;7347;50.844;4.490;2023-06-26T16:55:14;24.10;89.90
14521;DHT22;7347;50.844;4.490;2023-06-26T16:57:41;24.00;90.30
14521;DHT22;7347;50.844;4.490;2023-06-26T17:00:10;23.90;90.20
14521;DHT22;7347;50.844;4.490;2023-06-26T17:02:37;23.90;90.70
14521;DHT22;7347;50.844;4.490;2023-06-26T17:05:04;23.80;90.80
14521;DHT22;7347;50.844;4.490;2023-06-26T17:07:33;23.80;90.80
14521;DHT22;7347;50.844;4.490;2023-06-26T17:10:00;23.80;91.60
14521;DHT22;7347;50.844;4.490;2023-06-26T17:12:27;23.80;90.50
14521;DHT22;7347;50.844;4.490;2023-06-26T17:14:53;23.80;90.90
14521;DHT22;7347;50.844;4.490;2023-06-26T17:17:20;23.80;91.10
14521;DHT22;7347;50.844;4.490;2023-06-26T17:19:47;23.70;91.20
14521;DHT22;7347;50.844;4.490;2023-06-26T17:22:14;23.70;92.20
14521;DHT22;7347;50.844;4.490;2023-06-26T17:24:42;23.50;91.80
14521;DHT22;7347;50.844;4.490;2023-06-26T17:27:12;23.50;92.50
14521;DHT22;7347;50.844;4.490;2023-06-26T17:29:40;23.40;92.20
14521;DHT22;7347;50.844;4.490;2023-06-26T17:32:08;23.30;92.00
14521;DHT22;7347;50.844;4.490;2023-06-26T17:34:35;23.30;92.20
14521;DHT22;7347;50.844;4.490;2023-06-26T17:37:02;23.30;92.60
14521;DHT22;7347;50.844;4.490;2023-06-26T17:39:29;23.20;93.00
14521;DHT22;7347;50.844;4.490;2023-06-26T17:41:57;23.20;92.90
14521;DHT22;7347;50.844;4.490;2023-06-26T17:44:27;23.20;93.30
14521;DHT22;7347;50.844;4.490;2023-06-26T17:46:54;23.10;93.20
14521;DHT22;7347;50.844;4.490;2023-06-26T17:49:21;23.00;93.00
14521;DHT22;7347;50.844;4.490;2023-06-26T17:51:48;22.90;93.20
14521;DHT22;7347;50.844;4.490;2023-06-26T17:54:15;22.80;93.30
14521;DHT22;7347;50.844;4.490;2023-06-26T17:56:42;22.80;93.80
14521;DHT22;7347;50.844;4.490;2023-06-26T17:59:12;22.50;94.00
14521;DHT22;7347;50.844;4.490;2023-06-26T18:01:39;22.50;93.90
14521;DHT22;7347;50.844;4.490;2023-06-26T18:04:07;22.50;93.70
14521;DHT22;7347;50.844;4.490;2023-06-26T18:06:34;22.40;93.70
14521;DHT22;7347;50.844;4.490;2023-06-26T18:09:00;22.40;94.00
14521;DHT22;7347;50.844;4.490;2023-06-26T18:11:29;22.40;94.40
14521;DHT22;7347;50.844;4.490;2023-06-26T18:13:57;22.30;93.90
14521;DHT22;7347;50.844;4.490;2023-06-26T18:16:26;22.20;93.80
14521;DHT22;7347;50.844;4.490;2023-06-26T18:18:53;22.10;94.00
14521;DHT22;7347;50.844;4.490;2023-06-26T18:21:20;22.10;94.00
14521;DHT22;7347;50.844;4.490;2023-06-26T18:23:47;22.10;94.70
14521;DHT22;7347;50.844;4.490;2023-06-26T18:26:14;22.00;94.00
14521;DHT22;7347;50.844;4.490;2023-06-26T18:28:41;22.00;95.10
14521;DHT22;7347;50.844;4.490;2023-06-26T18:31:08;22.00;94.70
14521;DHT22;7347;50.844;4.490;2023-06-26T18:33:36;22.10;95.50
14521;DHT22;7347;50.844;4.490;2023-06-26T18:36:03;22.00;94.40
14521;DHT22;7347;50.844;4.490;2023-06-26T18:38:32;22.00;94.70
14521;DHT22;7347;50.844;4.490;2023-06-26T18:40:58;21.90;94.90
14521;DHT22;7347;50.844;4.490;2023-06-26T18:43:25;22.00;94.70
14521;DHT22;7347;50.844;4.490;2023-06-26T18:45:53;22.00;94.60
14521;DHT22;7347;50.844;4.490;2023-06-26T18:48:20;21.90;94.70
14521;DHT22;7347;50.844;4.490;2023-06-26T18:50:48;21.90;95.40
14521;DHT22;7347;50.844;4.490;2023-06-26T18:53:15;21.80;95.00
14521;DHT22;7347;50.844;4.490;2023-06-26T18:55:42;21.80;95.20
14521;DHT22;7347;50.844;4.490;2023-06-26T18:58:08;21.70;95.20
14521;DHT22;7347;50.844;4.490;2023-06-26T19:00:36;21.70;95.30
14521;DHT22;7347;50.844;4.490;2023-06-26T19:03:03;21.70;94.60
14521;DHT22;7347;50.844;4.490;2023-06-26T19:05:30;21.70;94.50
14521;DHT22;7347;50.844;4.490;2023-06-26T19:07:58;21.70;94.70
14521;DHT22;7347;50.844;4.490;2023-06-26T19:10:25;21.80;94.40
14521;DHT22;7347;50.844;4.490;2023-06-26T19:12:51;21.80;94.80
14521;DHT22;7347;50.844;4.490;2023-06-26T19:15:19;21.70;94.10
14521;DHT22;7347;50.844;4.490;2023-06-26T19:17:46;21.70;94.20
14521;DHT22;7347;50.844;4.490;2023-06-26T19:20:13;21.60;94.10
14521;DHT22;7347;50.844;4.490;2023-06-26T19:22:40;21.70;94.50
14521;DHT22;7347;50.844;4.490;2023-06-26T19:25:08;21.60;94.70
14521;DHT22;7347;50.844;4.490;2023-06-26T19:27:38;21.60;94.70
14521;DHT22;7347;50.844;4.490;2023-06-26T19:30:06;21.60;95.00
14521;DHT22;7347;50.844;4.490;2023-06-26T19:32:34;21.50;94.50
14521;DHT22;7347;50.844;4.490;2023-06-26T19:35:01;21.50;94.20
14521;DHT22;7347;50.844;4.490;2023-06-26T19:37:28;21.50;93.60
14521;DHT22;7347;50.844;4.490;2023-06-26T19:39:55;21.60;94.10
14521;DHT22;7347;50.844;4.490;2023-06-26T19:42:23;21.60;94.30
14521;DHT22;7347;50.844;4.490;2023-06-26T19:44:50;21.50;94.10
14521;DHT22;7347;50.844;4.490;2023-06-26T19:47:17;21.40;94.10
14521;DHT22;7347;50.844;4.490;2023-06-26T19:49:43;21.50;94.10
14521;DHT22;7347;50.844;4.490;2023-06-26T19:52:10;21.50;93.40
14521;DHT22;7347;50.844;4.490;2023-06-26T19:54:38;21.50;93.80
14521;DHT22;7347;50.844;4.490;2023-06-26T19:57:05;21.40;93.90
14521;DHT22;7347;50.844;4.490;2023-06-26T19:59:37;21.30;94.30
14521;DHT22;7347;50.844;4.490;2023-06-26T20:02:05;21.30;94.20
14521;DHT22;7347;50.844;4.490;2023-06-26T20:04:32;21.20;94.30
14521;DHT22;7347;50.844;4.490;2023-06-26T20:06:59;21.30;94.60
14521;DHT22;7347;50.844;4.490;2023-06-26T20:09:28;21.30;94.30
14521;DHT22;7347;50.844;4.490;2023-06-26T20:11:56;21.30;94.60
14521;DHT22;7347;50.844;4.490;2023-06-26T20:14:23;21.30;94.80
14521;DHT22;7347;50.844;4.490;2023-06-26T20:16:51;21.30;94.80
14521;DHT22;7347;50.844;4.490;2023-06-26T20:19:18;21.20;95.60
14521;DHT22;7347;50.844;4.490;2023-06-26T20:21:45;21.10;94.90
14521;DHT22;7347;50.844;4.490;2023-06-26T20:24:12;21.10;95.60
14521;DHT22;7347;50.844;4.490;2023-06-26T20:26:39;21.10;95.20
14521;DHT22;7347;50.844;4.490;2023-06-26T20:29:06;21.00;95.60
14521;DHT22;7347;50.844;4.490;2023-06-26T20:31:32;21.00;95.90
14521;DHT22;7347;50.844;4.490;2023-06-26T20:34:00;20.90;96.30
14521;DHT22;7347;50.844;4.490;2023-06-26T20:36:28;20.90;96.30
14521;DHT22;7347;50.844;4.490;2023-06-26T20:38:55;20.80;96.50
14521;DHT22;7347;50.844;4.490;2023-06-26T20:41:22;20.80;96.80
14521;DHT22;7347;50.844;4.490;2023-06-26T20:43:49;20.70;96.90
14521;DHT22;7347;50.844;4.490;2023-06-26T20:46:17;20.60;96.80
14521;DHT22;7347;50.844;4.490;2023-06-26T20:48:44;20.50;96.90
14521;DHT22;7347;50.844;4.490;2023-06-26T20:51:14;20.40;97.20
14521;DHT22;7347;50.844;4.490;2023-06-26T20:53:42;20.30;97.20
14521;DHT22;7347;50.844;4.490;2023-06-26T20:56:10;20.30;97.40
14521;DHT22;7347;50.844;4.490;2023-06-26T20:58:37;20.30;97.60
14521;DHT22;7347;50.844;4.490;2023-06-26T21:01:04;20.10;97.80
14521;DHT22;7347;50.844;4.490;2023-06-26T21:03:31;20.10;97.90
